sensor_id;sensor_type;location;lat;lon;timestamp;P1;durP1;ratioP1;P2;durP2;ratioP2
65150;SDS011;51918;51.856;0.150;2022-07-23T00:00:46;4.03;;;1.67;;
65150;SDS011;51918;51.856;0.150;2022-07-23T00:05:47;3.88;;;1.80;;
65150;SDS011;51918;51.856;0.150;2022-07-23T00:10:48;2.72;;;1.33;;
65150;SDS011;51918;51.856;0.150;2022-07-23T00:15:50;4.57;;;1.45;;
65150;SDS011;51918;51.856;0.150;2022-07-23T00:20:50;3.00;;;1.20;;
65150;SDS011;51918;51.856;0.150;2022-07-23T00:25:51;2.88;;;1.67;;
65150;SDS011;51918;51.856;0.150;2022-07-23T00:30:53;6.07;;;1.50;;
65150;SDS011;51918;51.856;0.150;2022-07-23T00:35:53;2.75;;;1.33;;
65150;SDS011;51918;51.856;0.150;2022-07-23T00:40:54;4.70;;;1.88;;
65150;SDS011;51918;51.856;0.150;2022-07-23T00:45:56;3.70;;;1.70;;
65150;SDS011;51918;51.856;0.150;2022-07-23T00:50:56;3.40;;;1.55;;
65150;SDS011;51918;51.856;0.150;2022-07-23T00:55:57;3.08;;;1.45;;
65150;SDS011;51918;51.856;0.150;2022-07-23T01:06:00;3.00;;;1.60;;
65150;SDS011;51918;51.856;0.150;2022-07-23T01:11:01;4.00;;;1.48;;
65150;SDS011;51918;51.856;0.150;2022-07-23T01:16:03;4.80;;;1.55;;
65150;SDS011;51918;51.856;0.150;2022-07-23T01:21:04;3.78;;;1.35;;
65150;SDS011;51918;51.856;0.150;2022-07-23T01:26:07;3.08;;;1.55;;
65150;SDS011;51918;51.856;0.150;2022-07-23T01:31:07;6.05;;;1.85;;
65150;SDS011;51918;51.856;0.150;2022-07-23T01:36:08;5.13;;;1.65;;
65150;SDS011;51918;51.856;0.150;2022-07-23T01:41:10;3.38;;;1.70;;
65150;SDS011;51918;51.856;0.150;2022-07-23T01:46:11;2.70;;;1.60;;
65150;SDS011;51918;51.856;0.150;2022-07-23T01:51:12;4.40;;;1.70;;
65150;SDS011;51918;51.856;0.150;2022-07-23T01:56:14;4.80;;;1.60;;
65150;SDS011;51918;51.856;0.150;2022-07-23T02:01:15;3.97;;;1.73;;
65150;SDS011;51918;51.856;0.150;2022-07-23T02:06:15;4.38;;;1.98;;
65150;SDS011;51918;51.856;0.150;2022-07-23T02:11:17;5.20;;;2.38;;
65150;SDS011;51918;51.856;0.150;2022-07-23T02:16:18;3.67;;;1.77;;
65150;SDS011;51918;51.856;0.150;2022-07-23T02:21:18;4.63;;;1.65;;
65150;SDS011;51918;51.856;0.150;2022-07-23T02:26:20;3.20;;;1.80;;
65150;SDS011;51918;51.856;0.150;2022-07-23T02:31:21;5.10;;;1.90;;
65150;SDS011;51918;51.856;0.150;2022-07-23T02:36:21;5.03;;;1.75;;
65150;SDS011;51918;51.856;0.150;2022-07-23T02:41:23;4.35;;;1.70;;
65150;SDS011;51918;51.856;0.150;2022-07-23T02:46:24;5.68;;;1.90;;
65150;SDS011;51918;51.856;0.150;2022-07-23T02:51:25;5.43;;;1.85;;
65150;SDS011;51918;51.856;0.150;2022-07-23T02:56:26;4.70;;;2.00;;
65150;SDS011;51918;51.856;0.150;2022-07-23T03:01:27;4.25;;;2.10;;
65150;SDS011;51918;51.856;0.150;2022-07-23T03:06:27;4.28;;;2.30;;
65150;SDS011;51918;51.856;0.150;2022-07-23T03:11:29;6.38;;;2.10;;
65150;SDS011;51918;51.856;0.150;2022-07-23T03:16:30;3.78;;;2.05;;
65150;SDS011;51918;51.856;0.150;2022-07-23T03:21:31;4.93;;;2.05;;
65150;SDS011;51918;51.856;0.150;2022-07-23T03:26:33;4.50;;;2.10;;
65150;SDS011;51918;51.856;0.150;2022-07-23T03:31:33;5.20;;;2.05;;
65150;SDS011;51918;51.856;0.150;2022-07-23T03:36:34;4.30;;;1.98;;
65150;SDS011;51918;51.856;0.150;2022-07-23T03:41:36;7.18;;;2.85;;
65150;SDS011;51918;51.856;0.150;2022-07-23T03:46:36;3.95;;;2.00;;
65150;SDS011;51918;51.856;0.150;2022-07-23T03:51:37;5.25;;;2.58;;
65150;SDS011;51918;51.856;0.150;2022-07-23T03:56:39;4.85;;;2.35;;
65150;SDS011;51918;51.856;0.150;2022-07-23T04:01:39;4.50;;;2.05;;
65150;SDS011;51918;51.856;0.150;2022-07-23T04:06:40;6.28;;;2.30;;
65150;SDS011;51918;51.856;0.150;2022-07-23T04:11:42;6.43;;;2.50;;
65150;SDS011;51918;51.856;0.150;2022-07-23T04:16:42;5.65;;;2.40;;
65150;SDS011;51918;51.856;0.150;2022-07-23T04:21:43;5.00;;;2.30;;
65150;SDS011;51918;51.856;0.150;2022-07-23T04:26:45;8.27;;;2.78;;
65150;SDS011;51918;51.856;0.150;2022-07-23T04:31:45;4.72;;;2.55;;
65150;SDS011;51918;51.856;0.150;2022-07-23T04:36:46;6.15;;;2.55;;
65150;SDS011;51918;51.856;0.150;2022-07-23T04:41:48;5.43;;;2.90;;
65150;SDS011;51918;51.856;0.150;2022-07-23T04:46:48;4.45;;;2.63;;
65150;SDS011;51918;51.856;0.150;2022-07-23T04:51:49;5.63;;;2.67;;
65150;SDS011;51918;51.856;0.150;2022-07-23T04:56:51;8.68;;;3.55;;
65150;SDS011;51918;51.856;0.150;2022-07-23T05:01:51;6.60;;;2.83;;
65150;SDS011;51918;51.856;0.150;2022-07-23T05:06:52;5.63;;;2.58;;
65150;SDS011;51918;51.856;0.150;2022-07-23T05:11:54;6.32;;;3.45;;
65150;SDS011;51918;51.856;0.150;2022-07-23T05:16:54;7.03;;;2.90;;
65150;SDS011;51918;51.856;0.150;2022-07-23T05:21:55;8.52;;;2.90;;
65150;SDS011;51918;51.856;0.150;2022-07-23T05:26:57;11.18;;;3.00;;
65150;SDS011;51918;51.856;0.150;2022-07-23T05:31:58;6.47;;;3.58;;
65150;SDS011;51918;51.856;0.150;2022-07-23T05:36:58;5.78;;;3.28;;
65150;SDS011;51918;51.856;0.150;2022-07-23T05:42:00;6.97;;;3.38;;
65150;SDS011;51918;51.856;0.150;2022-07-23T05:47:01;7.40;;;3.80;;
65150;SDS011;51918;51.856;0.150;2022-07-23T05:52:03;6.07;;;3.38;;
65150;SDS011;51918;51.856;0.150;2022-07-23T05:57:06;6.00;;;3.10;;
65150;SDS011;51918;51.856;0.150;2022-07-23T06:02:06;5.53;;;3.10;;
65150;SDS011;51918;51.856;0.150;2022-07-23T06:07:07;7.65;;;3.35;;
65150;SDS011;51918;51.856;0.150;2022-07-23T06:12:09;8.50;;;3.85;;
65150;SDS011;51918;51.856;0.150;2022-07-23T06:17:10;5.68;;;3.10;;
65150;SDS011;51918;51.856;0.150;2022-07-23T06:22:10;7.57;;;3.08;;
65150;SDS011;51918;51.856;0.150;2022-07-23T06:27:12;7.20;;;3.08;;
65150;SDS011;51918;51.856;0.150;2022-07-23T06:32:13;7.95;;;4.13;;
65150;SDS011;51918;51.856;0.150;2022-07-23T06:37:13;6.90;;;3.20;;
65150;SDS011;51918;51.856;0.150;2022-07-23T06:47:16;5.95;;;3.67;;
65150;SDS011;51918;51.856;0.150;2022-07-23T06:57:18;8.45;;;4.57;;
65150;SDS011;51918;51.856;0.150;2022-07-23T07:02:19;7.45;;;3.83;;
65150;SDS011;51918;51.856;0.150;2022-07-23T07:07:19;7.47;;;3.80;;
65150;SDS011;51918;51.856;0.150;2022-07-23T07:12:21;8.10;;;4.22;;
65150;SDS011;51918;51.856;0.150;2022-07-23T07:17:22;7.10;;;3.10;;
65150;SDS011;51918;51.856;0.150;2022-07-23T07:22:22;6.80;;;3.97;;
65150;SDS011;51918;51.856;0.150;2022-07-23T07:27:24;6.18;;;3.83;;
65150;SDS011;51918;51.856;0.150;2022-07-23T07:32:25;9.50;;;4.50;;
65150;SDS011;51918;51.856;0.150;2022-07-23T07:37:26;7.90;;;3.67;;
65150;SDS011;51918;51.856;0.150;2022-07-23T07:42:28;6.00;;;3.63;;
65150;SDS011;51918;51.856;0.150;2022-07-23T07:47:28;6.68;;;3.35;;
65150;SDS011;51918;51.856;0.150;2022-07-23T07:52:29;6.20;;;3.15;;
65150;SDS011;51918;51.856;0.150;2022-07-23T07:57:31;5.90;;;3.05;;
65150;SDS011;51918;51.856;0.150;2022-07-23T08:02:39;7.13;;;2.55;;
65150;SDS011;51918;51.856;0.150;2022-07-23T08:07:40;9.00;;;3.00;;
65150;SDS011;51918;51.856;0.150;2022-07-23T08:12:43;5.80;;;3.08;;
65150;SDS011;51918;51.856;0.150;2022-07-23T08:17:45;4.88;;;2.70;;
65150;SDS011;51918;51.856;0.150;2022-07-23T08:22:48;5.47;;;2.97;;
65150;SDS011;51918;51.856;0.150;2022-07-23T08:27:51;6.28;;;2.90;;
65150;SDS011;51918;51.856;0.150;2022-07-23T08:32:53;5.22;;;2.83;;
65150;SDS011;51918;51.856;0.150;2022-07-23T08:37:55;4.88;;;2.38;;
65150;SDS011;51918;51.856;0.150;2022-07-23T08:43:00;4.95;;;2.55;;
65150;SDS011;51918;51.856;0.150;2022-07-23T08:48:05;4.85;;;3.00;;
65150;SDS011;51918;51.856;0.150;2022-07-23T08:53:07;4.45;;;2.35;;
65150;SDS011;51918;51.856;0.150;2022-07-23T08:58:11;5.32;;;3.10;;
65150;SDS011;51918;51.856;0.150;2022-07-23T09:03:13;5.07;;;3.10;;
65150;SDS011;51918;51.856;0.150;2022-07-23T09:08:17;4.35;;;2.55;;
65150;SDS011;51918;51.856;0.150;2022-07-23T09:13:30;5.13;;;2.70;;
65150;SDS011;51918;51.856;0.150;2022-07-23T09:18:37;4.70;;;2.85;;
65150;SDS011;51918;51.856;0.150;2022-07-23T09:23:40;3.58;;;2.15;;
65150;SDS011;51918;51.856;0.150;2022-07-23T09:28:48;4.32;;;2.47;;
65150;SDS011;51918;51.856;0.150;2022-07-23T09:33:51;5.72;;;2.30;;
65150;SDS011;51918;51.856;0.150;2022-07-23T09:39:08;3.53;;;2.50;;
65150;SDS011;51918;51.856;0.150;2022-07-23T09:44:11;4.65;;;2.90;;
65150;SDS011;51918;51.856;0.150;2022-07-23T09:49:15;6.95;;;3.13;;
65150;SDS011;51918;51.856;0.150;2022-07-23T09:54:24;5.63;;;3.30;;
65150;SDS011;51918;51.856;0.150;2022-07-23T09:59:29;4.95;;;2.80;;
65150;SDS011;51918;51.856;0.150;2022-07-23T10:04:31;6.72;;;2.78;;
65150;SDS011;51918;51.856;0.150;2022-07-23T10:09:32;5.13;;;2.67;;
65150;SDS011;51918;51.856;0.150;2022-07-23T10:14:35;4.50;;;2.97;;
65150;SDS011;51918;51.856;0.150;2022-07-23T10:19:38;3.97;;;2.47;;
65150;SDS011;51918;51.856;0.150;2022-07-23T10:24:50;3.83;;;2.70;;
65150;SDS011;51918;51.856;0.150;2022-07-23T10:30:00;4.60;;;2.33;;
65150;SDS011;51918;51.856;0.150;2022-07-23T10:35:07;3.85;;;2.20;;
65150;SDS011;51918;51.856;0.150;2022-07-23T10:40:13;6.28;;;2.40;;
65150;SDS011;51918;51.856;0.150;2022-07-23T10:45:27;3.45;;;2.13;;
65150;SDS011;51918;51.856;0.150;2022-07-23T10:50:30;4.40;;;2.10;;
65150;SDS011;51918;51.856;0.150;2022-07-23T10:55:41;3.17;;;2.00;;
65150;SDS011;51918;51.856;0.150;2022-07-23T11:00:46;4.00;;;2.30;;
65150;SDS011;51918;51.856;0.150;2022-07-23T11:05:47;3.33;;;1.90;;
65150;SDS011;51918;51.856;0.150;2022-07-23T11:10:49;6.53;;;2.67;;
65150;SDS011;51918;51.856;0.150;2022-07-23T11:16:04;3.33;;;2.00;;
65150;SDS011;51918;51.856;0.150;2022-07-23T11:26:44;4.65;;;1.83;;
65150;SDS011;51918;51.856;0.150;2022-07-23T11:31:52;3.13;;;1.70;;
65150;SDS011;51918;51.856;0.150;2022-07-23T11:36:53;2.22;;;1.40;;
65150;SDS011;51918;51.856;0.150;2022-07-23T11:41:54;3.03;;;1.50;;
65150;SDS011;51918;51.856;0.150;2022-07-23T11:46:57;2.72;;;1.50;;
65150;SDS011;51918;51.856;0.150;2022-07-23T11:52:02;2.78;;;1.65;;
65150;SDS011;51918;51.856;0.150;2022-07-23T11:57:04;3.05;;;1.60;;
65150;SDS011;51918;51.856;0.150;2022-07-23T12:02:06;3.58;;;1.63;;
65150;SDS011;51918;51.856;0.150;2022-07-23T12:07:22;3.42;;;1.30;;
65150;SDS011;51918;51.856;0.150;2022-07-23T12:12:34;3.05;;;1.63;;
65150;SDS011;51918;51.856;0.150;2022-07-23T12:17:37;2.33;;;1.15;;
65150;SDS011;51918;51.856;0.150;2022-07-23T12:22:40;3.25;;;1.60;;
65150;SDS011;51918;51.856;0.150;2022-07-23T12:27:42;2.83;;;1.50;;
65150;SDS011;51918;51.856;0.150;2022-07-23T12:32:47;3.75;;;1.50;;
65150;SDS011;51918;51.856;0.150;2022-07-23T12:42:51;2.75;;;1.40;;
65150;SDS011;51918;51.856;0.150;2022-07-23T12:47:56;2.35;;;1.30;;
65150;SDS011;51918;51.856;0.150;2022-07-23T12:53:02;4.15;;;1.80;;
65150;SDS011;51918;51.856;0.150;2022-07-23T12:58:05;3.15;;;1.20;;
65150;SDS011;51918;51.856;0.150;2022-07-23T13:03:21;2.35;;;1.10;;
65150;SDS011;51918;51.856;0.150;2022-07-23T13:08:23;1.88;;;1.10;;
65150;SDS011;51918;51.856;0.150;2022-07-23T13:13:26;2.33;;;1.30;;
65150;SDS011;51918;51.856;0.150;2022-07-23T13:18:30;3.75;;;1.55;;
65150;SDS011;51918;51.856;0.150;2022-07-23T13:23:31;3.47;;;1.42;;
65150;SDS011;51918;51.856;0.150;2022-07-23T13:28:32;2.55;;;1.27;;
65150;SDS011;51918;51.856;0.150;2022-07-23T13:33:33;2.13;;;1.35;;
65150;SDS011;51918;51.856;0.150;2022-07-23T13:38:34;2.92;;;1.10;;
65150;SDS011;51918;51.856;0.150;2022-07-23T13:43:35;1.60;;;1.20;;
65150;SDS011;51918;51.856;0.150;2022-07-23T13:48:37;2.70;;;1.20;;
65150;SDS011;51918;51.856;0.150;2022-07-23T13:53:38;2.58;;;1.35;;
65150;SDS011;51918;51.856;0.150;2022-07-23T13:58:38;3.00;;;1.15;;
65150;SDS011;51918;51.856;0.150;2022-07-23T14:03:40;2.95;;;1.17;;
65150;SDS011;51918;51.856;0.150;2022-07-23T14:08:41;1.98;;;1.13;;
65150;SDS011;51918;51.856;0.150;2022-07-23T14:13:41;2.50;;;1.20;;
65150;SDS011;51918;51.856;0.150;2022-07-23T14:18:43;1.95;;;1.25;;
65150;SDS011;51918;51.856;0.150;2022-07-23T14:23:44;3.65;;;1.52;;
65150;SDS011;51918;51.856;0.150;2022-07-23T14:28:45;2.47;;;1.13;;
65150;SDS011;51918;51.856;0.150;2022-07-23T14:33:47;2.42;;;1.10;;
65150;SDS011;51918;51.856;0.150;2022-07-23T14:38:48;2.17;;;1.30;;
65150;SDS011;51918;51.856;0.150;2022-07-23T14:43:48;1.90;;;1.02;;
65150;SDS011;51918;51.856;0.150;2022-07-23T14:48:50;2.05;;;1.15;;
65150;SDS011;51918;51.856;0.150;2022-07-23T14:53:51;2.63;;;0.98;;
65150;SDS011;51918;51.856;0.150;2022-07-23T14:58:52;2.55;;;1.17;;
65150;SDS011;51918;51.856;0.150;2022-07-23T15:03:54;1.98;;;1.17;;
65150;SDS011;51918;51.856;0.150;2022-07-23T15:08:54;2.65;;;1.80;;
65150;SDS011;51918;51.856;0.150;2022-07-23T15:13:55;1.88;;;1.27;;
65150;SDS011;51918;51.856;0.150;2022-07-23T15:18:57;2.13;;;1.30;;
65150;SDS011;51918;51.856;0.150;2022-07-23T15:23:58;2.42;;;1.20;;
65150;SDS011;51918;51.856;0.150;2022-07-23T15:28:59;5.45;;;1.42;;
65150;SDS011;51918;51.856;0.150;2022-07-23T15:34:01;3.15;;;1.55;;
65150;SDS011;51918;51.856;0.150;2022-07-23T15:39:02;5.72;;;1.40;;
65150;SDS011;51918;51.856;0.150;2022-07-23T15:44:03;2.58;;;1.65;;
65150;SDS011;51918;51.856;0.150;2022-07-23T15:49:05;5.38;;;1.60;;
65150;SDS011;51918;51.856;0.150;2022-07-23T15:54:06;2.30;;;1.60;;
65150;SDS011;51918;51.856;0.150;2022-07-23T15:59:07;3.00;;;1.38;;
65150;SDS011;51918;51.856;0.150;2022-07-23T16:04:10;2.50;;;1.40;;
65150;SDS011;51918;51.856;0.150;2022-07-23T16:09:10;2.10;;;1.60;;
65150;SDS011;51918;51.856;0.150;2022-07-23T16:14:11;3.15;;;1.65;;
65150;SDS011;51918;51.856;0.150;2022-07-23T16:19:13;2.63;;;1.45;;
65150;SDS011;51918;51.856;0.150;2022-07-23T16:24:13;2.70;;;1.42;;
65150;SDS011;51918;51.856;0.150;2022-07-23T16:29:14;2.40;;;1.30;;
65150;SDS011;51918;51.856;0.150;2022-07-23T16:34:16;2.03;;;1.17;;
65150;SDS011;51918;51.856;0.150;2022-07-23T16:39:16;2.15;;;1.27;;
65150;SDS011;51918;51.856;0.150;2022-07-23T16:44:17;1.85;;;1.30;;
65150;SDS011;51918;51.856;0.150;2022-07-23T16:49:19;3.40;;;1.40;;
65150;SDS011;51918;51.856;0.150;2022-07-23T16:54:19;2.35;;;1.40;;
65150;SDS011;51918;51.856;0.150;2022-07-23T16:59:20;3.45;;;1.70;;
65150;SDS011;51918;51.856;0.150;2022-07-23T17:04:22;2.67;;;1.50;;
65150;SDS011;51918;51.856;0.150;2022-07-23T17:09:23;2.15;;;1.27;;
65150;SDS011;51918;51.856;0.150;2022-07-23T17:14:23;4.28;;;1.33;;
65150;SDS011;51918;51.856;0.150;2022-07-23T17:19:25;4.03;;;1.55;;
65150;SDS011;51918;51.856;0.150;2022-07-23T17:24:26;3.08;;;1.63;;
65150;SDS011;51918;51.856;0.150;2022-07-23T17:29:26;3.03;;;1.65;;
65150;SDS011;51918;51.856;0.150;2022-07-23T17:34:28;3.80;;;1.38;;
65150;SDS011;51918;51.856;0.150;2022-07-23T17:39:29;2.15;;;1.30;;
65150;SDS011;51918;51.856;0.150;2022-07-23T17:44:30;2.38;;;1.30;;
65150;SDS011;51918;51.856;0.150;2022-07-23T17:49:32;2.35;;;1.40;;
65150;SDS011;51918;51.856;0.150;2022-07-23T17:54:32;2.22;;;1.40;;
65150;SDS011;51918;51.856;0.150;2022-07-23T17:59:33;3.72;;;1.50;;
65150;SDS011;51918;51.856;0.150;2022-07-23T18:04:35;3.65;;;1.80;;
65150;SDS011;51918;51.856;0.150;2022-07-23T18:09:36;2.67;;;1.80;;
65150;SDS011;51918;51.856;0.150;2022-07-23T18:14:37;3.33;;;1.55;;
65150;SDS011;51918;51.856;0.150;2022-07-23T18:19:39;4.47;;;1.80;;
65150;SDS011;51918;51.856;0.150;2022-07-23T18:24:39;3.65;;;1.58;;
65150;SDS011;51918;51.856;0.150;2022-07-23T18:29:40;2.65;;;1.63;;
65150;SDS011;51918;51.856;0.150;2022-07-23T18:34:42;3.88;;;1.90;;
65150;SDS011;51918;51.856;0.150;2022-07-23T18:39:43;2.05;;;1.15;;
65150;SDS011;51918;51.856;0.150;2022-07-23T18:44:43;5.90;;;1.90;;
65150;SDS011;51918;51.856;0.150;2022-07-23T18:49:45;3.42;;;1.60;;
65150;SDS011;51918;51.856;0.150;2022-07-23T18:54:46;3.20;;;1.77;;
65150;SDS011;51918;51.856;0.150;2022-07-23T18:59:47;2.45;;;1.52;;
65150;SDS011;51918;51.856;0.150;2022-07-23T19:04:49;2.55;;;1.55;;
65150;SDS011;51918;51.856;0.150;2022-07-23T19:09:50;5.20;;;2.60;;
65150;SDS011;51918;51.856;0.150;2022-07-23T19:14:51;3.05;;;1.40;;
65150;SDS011;51918;51.856;0.150;2022-07-23T19:19:53;2.95;;;1.50;;
65150;SDS011;51918;51.856;0.150;2022-07-23T19:24:54;2.50;;;1.30;;
65150;SDS011;51918;51.856;0.150;2022-07-23T19:29:54;1.98;;;1.20;;
65150;SDS011;51918;51.856;0.150;2022-07-23T19:34:56;2.10;;;1.50;;
65150;SDS011;51918;51.856;0.150;2022-07-23T19:39:57;2.88;;;1.67;;
65150;SDS011;51918;51.856;0.150;2022-07-23T19:44:58;2.47;;;1.35;;
65150;SDS011;51918;51.856;0.150;2022-07-23T19:50:00;2.25;;;1.10;;
65150;SDS011;51918;51.856;0.150;2022-07-23T19:55:00;2.95;;;1.92;;
65150;SDS011;51918;51.856;0.150;2022-07-23T20:00:01;2.80;;;1.42;;
65150;SDS011;51918;51.856;0.150;2022-07-23T20:05:05;6.85;;;1.83;;
65150;SDS011;51918;51.856;0.150;2022-07-23T20:10:09;2.78;;;1.60;;
65150;SDS011;51918;51.856;0.150;2022-07-23T20:15:10;2.33;;;1.45;;
65150;SDS011;51918;51.856;0.150;2022-07-23T20:20:13;2.15;;;1.33;;
65150;SDS011;51918;51.856;0.150;2022-07-23T20:25:14;2.63;;;1.60;;
65150;SDS011;51918;51.856;0.150;2022-07-23T20:30:14;3.22;;;1.60;;
65150;SDS011;51918;51.856;0.150;2022-07-23T20:35:16;2.30;;;1.65;;
65150;SDS011;51918;51.856;0.150;2022-07-23T20:40:17;3.65;;;2.13;;
65150;SDS011;51918;51.856;0.150;2022-07-23T20:45:18;4.30;;;1.73;;
65150;SDS011;51918;51.856;0.150;2022-07-23T20:50:20;4.43;;;2.28;;
65150;SDS011;51918;51.856;0.150;2022-07-23T20:55:21;3.17;;;1.90;;
65150;SDS011;51918;51.856;0.150;2022-07-23T21:00:22;4.13;;;1.77;;
65150;SDS011;51918;51.856;0.150;2022-07-23T21:05:24;3.58;;;1.95;;
65150;SDS011;51918;51.856;0.150;2022-07-23T21:10:25;3.50;;;1.80;;
65150;SDS011;51918;51.856;0.150;2022-07-23T21:15:26;3.05;;;2.05;;
65150;SDS011;51918;51.856;0.150;2022-07-23T21:20:28;4.00;;;2.80;;
65150;SDS011;51918;51.856;0.150;2022-07-23T21:25:29;4.65;;;2.30;;
65150;SDS011;51918;51.856;0.150;2022-07-23T21:30:30;4.47;;;2.03;;
65150;SDS011;51918;51.856;0.150;2022-07-23T21:35:32;5.90;;;2.80;;
65150;SDS011;51918;51.856;0.150;2022-07-23T21:40:32;3.80;;;2.40;;
65150;SDS011;51918;51.856;0.150;2022-07-23T21:45:33;4.28;;;2.88;;
65150;SDS011;51918;51.856;0.150;2022-07-23T21:50:35;5.10;;;3.03;;
65150;SDS011;51918;51.856;0.150;2022-07-23T21:55:36;5.47;;;3.00;;
65150;SDS011;51918;51.856;0.150;2022-07-23T22:00:37;4.90;;;3.20;;
65150;SDS011;51918;51.856;0.150;2022-07-23T22:05:39;5.43;;;3.05;;
65150;SDS011;51918;51.856;0.150;2022-07-23T22:10:40;4.60;;;2.92;;
65150;SDS011;51918;51.856;0.150;2022-07-23T22:15:41;5.45;;;3.17;;
65150;SDS011;51918;51.856;0.150;2022-07-23T22:20:43;4.97;;;2.80;;
65150;SDS011;51918;51.856;0.150;2022-07-23T22:25:44;5.25;;;3.13;;
65150;SDS011;51918;51.856;0.150;2022-07-23T22:30:45;4.22;;;2.53;;
65150;SDS011;51918;51.856;0.150;2022-07-23T22:35:47;3.80;;;2.70;;
65150;SDS011;51918;51.856;0.150;2022-07-23T22:40:47;3.33;;;2.28;;
65150;SDS011;51918;51.856;0.150;2022-07-23T22:45:48;4.35;;;2.90;;
65150;SDS011;51918;51.856;0.150;2022-07-23T22:50:50;5.43;;;2.33;;
65150;SDS011;51918;51.856;0.150;2022-07-23T22:55:51;3.75;;;2.75;;
65150;SDS011;51918;51.856;0.150;2022-07-23T23:00:52;5.25;;;2.50;;
65150;SDS011;51918;51.856;0.150;2022-07-23T23:05:54;5.32;;;2.50;;
65150;SDS011;51918;51.856;0.150;2022-07-23T23:10:55;4.30;;;2.30;;
65150;SDS011;51918;51.856;0.150;2022-07-23T23:15:55;4.68;;;2.38;;
65150;SDS011;51918;51.856;0.150;2022-07-23T23:20:57;5.15;;;2.25;;
65150;SDS011;51918;51.856;0.150;2022-07-23T23:25:58;4.03;;;2.10;;
65150;SDS011;51918;51.856;0.150;2022-07-23T23:30:59;5.30;;;2.40;;
65150;SDS011;51918;51.856;0.150;2022-07-23T23:36:01;3.90;;;2.45;;
65150;SDS011;51918;51.856;0.150;2022-07-23T23:41:02;4.78;;;2.30;;
65150;SDS011;51918;51.856;0.150;2022-07-23T23:46:02;3.70;;;2.35;;
65150;SDS011;51918;51.856;0.150;2022-07-23T23:51:05;3.83;;;2.38;;
65150;SDS011;51918;51.856;0.150;2022-07-23T23:56:05;4.47;;;2.40;;
